Terminal Aerodrome Forecast
Issued by NWS

Home | Current Version | Previous Version | Text Only | Print | Product List | Glossary On
Versions: 1 2 3 4 5 6 7 8 9 10 11 12 13 14 15 16 17 18 19 20 21 22 23
000
FTUS45 KGJT 181743
TAFCNY
TAF
KCNY 181743Z 1818/1918 21020G29KT P6SM FEW100 FEW250
     FM190200 21017G27KT P6SM FEW100 SCT200
     FM191000 21018G29KT P6SM SCT045 BKN100
     FM191200 21020G32KT P6SM VCSH BKN045 BKN090=

USA.gov is the U.S. government's official web portal to all federal, state and local government web resources and services.